sensor_id;sensor_type;location;lat;lon;timestamp;P1;durP1;ratioP1;P2;durP2;ratioP2
43124;SDS011;49182;50.788;7.318;2023-12-28T00:00:32;3.05;;;1.77;;
43124;SDS011;49182;50.788;7.318;2023-12-28T00:05:34;2.85;;;1.13;;
43124;SDS011;49182;50.788;7.318;2023-12-28T00:10:38;2.80;;;1.55;;
43124;SDS011;49182;50.788;7.318;2023-12-28T00:15:39;3.03;;;1.20;;
43124;SDS011;49182;50.788;7.318;2023-12-28T00:20:41;2.92;;;1.92;;
43124;SDS011;49182;50.788;7.318;2023-12-28T00:25:44;3.70;;;1.58;;
43124;SDS011;49182;50.788;7.318;2023-12-28T00:30:46;3.33;;;1.27;;
43124;SDS011;49182;50.788;7.318;2023-12-28T00:35:48;4.38;;;1.65;;
43124;SDS011;49182;50.788;7.318;2023-12-28T00:40:51;2.35;;;1.23;;
43124;SDS011;49182;50.788;7.318;2023-12-28T00:45:52;3.33;;;1.40;;
43124;SDS011;49182;50.788;7.318;2023-12-28T00:50:54;3.75;;;1.73;;
43124;SDS011;49182;50.788;7.318;2023-12-28T00:55:57;3.30;;;1.42;;
43124;SDS011;49182;50.788;7.318;2023-12-28T01:00:59;4.10;;;1.88;;
43124;SDS011;49182;50.788;7.318;2023-12-28T01:06:01;3.78;;;1.00;;
43124;SDS011;49182;50.788;7.318;2023-12-28T01:11:04;3.25;;;1.65;;
43124;SDS011;49182;50.788;7.318;2023-12-28T01:16:06;4.43;;;1.40;;
43124;SDS011;49182;50.788;7.318;2023-12-28T01:21:08;2.17;;;1.25;;
43124;SDS011;49182;50.788;7.318;2023-12-28T01:26:13;2.35;;;1.50;;
43124;SDS011;49182;50.788;7.318;2023-12-28T01:31:15;2.53;;;1.30;;
43124;SDS011;49182;50.788;7.318;2023-12-28T01:36:18;1.98;;;0.82;;
43124;SDS011;49182;50.788;7.318;2023-12-28T01:41:21;2.15;;;0.93;;
43124;SDS011;49182;50.788;7.318;2023-12-28T01:46:23;2.58;;;1.08;;
43124;SDS011;49182;50.788;7.318;2023-12-28T01:51:25;1.80;;;0.90;;
43124;SDS011;49182;50.788;7.318;2023-12-28T01:56:28;1.73;;;1.00;;
43124;SDS011;49182;50.788;7.318;2023-12-28T02:01:30;2.60;;;1.15;;
43124;SDS011;49182;50.788;7.318;2023-12-28T02:06:32;1.60;;;1.00;;
43124;SDS011;49182;50.788;7.318;2023-12-28T02:11:36;2.35;;;1.27;;
43124;SDS011;49182;50.788;7.318;2023-12-28T02:16:39;1.67;;;0.73;;
43124;SDS011;49182;50.788;7.318;2023-12-28T02:21:46;2.08;;;1.08;;
43124;SDS011;49182;50.788;7.318;2023-12-28T02:26:50;2.00;;;0.63;;
43124;SDS011;49182;50.788;7.318;2023-12-28T02:31:53;3.05;;;1.27;;
43124;SDS011;49182;50.788;7.318;2023-12-28T02:37:03;3.75;;;1.95;;
43124;SDS011;49182;50.788;7.318;2023-12-28T02:42:08;1.80;;;0.85;;
43124;SDS011;49182;50.788;7.318;2023-12-28T02:47:10;3.45;;;1.17;;
43124;SDS011;49182;50.788;7.318;2023-12-28T02:52:12;1.88;;;0.95;;
43124;SDS011;49182;50.788;7.318;2023-12-28T02:57:15;3.38;;;1.35;;
43124;SDS011;49182;50.788;7.318;2023-12-28T03:02:17;2.95;;;1.40;;
43124;SDS011;49182;50.788;7.318;2023-12-28T03:07:20;2.33;;;1.10;;
43124;SDS011;49182;50.788;7.318;2023-12-28T03:12:24;1.98;;;0.85;;
43124;SDS011;49182;50.788;7.318;2023-12-28T03:17:26;2.20;;;1.33;;
43124;SDS011;49182;50.788;7.318;2023-12-28T03:22:29;3.08;;;0.80;;
43124;SDS011;49182;50.788;7.318;2023-12-28T03:27:32;1.40;;;0.70;;
43124;SDS011;49182;50.788;7.318;2023-12-28T03:32:33;2.58;;;2.10;;
43124;SDS011;49182;50.788;7.318;2023-12-28T03:37:35;2.95;;;1.10;;
43124;SDS011;49182;50.788;7.318;2023-12-28T03:42:38;3.63;;;1.10;;
43124;SDS011;49182;50.788;7.318;2023-12-28T03:47:40;2.03;;;1.23;;
43124;SDS011;49182;50.788;7.318;2023-12-28T03:52:42;1.75;;;0.90;;
43124;SDS011;49182;50.788;7.318;2023-12-28T03:57:45;1.90;;;0.82;;
43124;SDS011;49182;50.788;7.318;2023-12-28T04:02:46;1.52;;;0.70;;
43124;SDS011;49182;50.788;7.318;2023-12-28T04:07:50;2.22;;;1.35;;
43124;SDS011;49182;50.788;7.318;2023-12-28T04:12:53;2.17;;;1.38;;
43124;SDS011;49182;50.788;7.318;2023-12-28T04:17:56;1.25;;;0.85;;
43124;SDS011;49182;50.788;7.318;2023-12-28T04:22:58;5.78;;;1.20;;
43124;SDS011;49182;50.788;7.318;2023-12-28T04:28:02;3.38;;;1.02;;
43124;SDS011;49182;50.788;7.318;2023-12-28T04:33:04;2.40;;;1.48;;
43124;SDS011;49182;50.788;7.318;2023-12-28T04:38:08;2.13;;;0.80;;
43124;SDS011;49182;50.788;7.318;2023-12-28T04:43:11;2.85;;;1.58;;
43124;SDS011;49182;50.788;7.318;2023-12-28T04:48:13;2.67;;;1.73;;
43124;SDS011;49182;50.788;7.318;2023-12-28T04:53:15;2.65;;;1.40;;
43124;SDS011;49182;50.788;7.318;2023-12-28T04:58:18;4.72;;;2.47;;
43124;SDS011;49182;50.788;7.318;2023-12-28T05:03:21;2.35;;;1.83;;
43124;SDS011;49182;50.788;7.318;2023-12-28T05:08:22;2.20;;;1.10;;
43124;SDS011;49182;50.788;7.318;2023-12-28T05:13:27;2.53;;;1.60;;
43124;SDS011;49182;50.788;7.318;2023-12-28T05:18:29;2.47;;;1.15;;
43124;SDS011;49182;50.788;7.318;2023-12-28T05:23:31;3.25;;;1.70;;
43124;SDS011;49182;50.788;7.318;2023-12-28T05:28:34;3.40;;;1.80;;
43124;SDS011;49182;50.788;7.318;2023-12-28T05:38:37;2.13;;;1.13;;
43124;SDS011;49182;50.788;7.318;2023-12-28T05:43:40;4.10;;;1.40;;
43124;SDS011;49182;50.788;7.318;2023-12-28T05:53:43;2.60;;;1.58;;
43124;SDS011;49182;50.788;7.318;2023-12-28T05:58:46;2.85;;;1.83;;
43124;SDS011;49182;50.788;7.318;2023-12-28T06:08:50;2.83;;;1.80;;
43124;SDS011;49182;50.788;7.318;2023-12-28T06:13:53;5.15;;;1.92;;
43124;SDS011;49182;50.788;7.318;2023-12-28T06:18:55;2.85;;;1.63;;
43124;SDS011;49182;50.788;7.318;2023-12-28T06:23:56;3.60;;;2.50;;
43124;SDS011;49182;50.788;7.318;2023-12-28T06:28:59;2.67;;;1.38;;
43124;SDS011;49182;50.788;7.318;2023-12-28T06:39:03;3.58;;;1.30;;
43124;SDS011;49182;50.788;7.318;2023-12-28T06:44:06;4.68;;;2.05;;
43124;SDS011;49182;50.788;7.318;2023-12-28T06:49:08;3.17;;;1.67;;
43124;SDS011;49182;50.788;7.318;2023-12-28T06:54:12;2.95;;;2.20;;
43124;SDS011;49182;50.788;7.318;2023-12-28T06:59:16;3.88;;;2.58;;
43124;SDS011;49182;50.788;7.318;2023-12-28T07:04:18;3.40;;;1.85;;
43124;SDS011;49182;50.788;7.318;2023-12-28T07:09:20;5.05;;;2.00;;
43124;SDS011;49182;50.788;7.318;2023-12-28T07:14:24;4.15;;;1.98;;
43124;SDS011;49182;50.788;7.318;2023-12-28T07:19:25;4.00;;;1.50;;
43124;SDS011;49182;50.788;7.318;2023-12-28T07:24:27;3.60;;;1.83;;
43124;SDS011;49182;50.788;7.318;2023-12-28T07:29:30;3.00;;;1.77;;
43124;SDS011;49182;50.788;7.318;2023-12-28T07:34:32;2.83;;;1.77;;
43124;SDS011;49182;50.788;7.318;2023-12-28T07:39:34;4.13;;;2.60;;
43124;SDS011;49182;50.788;7.318;2023-12-28T07:44:37;5.28;;;2.53;;
43124;SDS011;49182;50.788;7.318;2023-12-28T07:49:38;4.22;;;2.42;;
43124;SDS011;49182;50.788;7.318;2023-12-28T07:54:40;8.05;;;3.70;;
43124;SDS011;49182;50.788;7.318;2023-12-28T07:59:44;7.80;;;4.63;;
43124;SDS011;49182;50.788;7.318;2023-12-28T08:04:45;7.82;;;4.05;;
43124;SDS011;49182;50.788;7.318;2023-12-28T08:09:47;6.43;;;3.88;;
43124;SDS011;49182;50.788;7.318;2023-12-28T08:14:50;8.40;;;4.25;;
43124;SDS011;49182;50.788;7.318;2023-12-28T08:19:52;8.55;;;5.05;;
43124;SDS011;49182;50.788;7.318;2023-12-28T08:24:54;7.68;;;3.58;;
43124;SDS011;49182;50.788;7.318;2023-12-28T08:29:57;7.78;;;3.40;;
43124;SDS011;49182;50.788;7.318;2023-12-28T08:34:59;4.45;;;3.00;;
43124;SDS011;49182;50.788;7.318;2023-12-28T08:40:01;5.35;;;3.53;;
43124;SDS011;49182;50.788;7.318;2023-12-28T08:45:04;9.15;;;5.25;;
43124;SDS011;49182;50.788;7.318;2023-12-28T08:50:06;5.38;;;2.60;;
43124;SDS011;49182;50.788;7.318;2023-12-28T08:55:09;4.63;;;2.15;;
43124;SDS011;49182;50.788;7.318;2023-12-28T09:00:12;5.22;;;2.90;;
43124;SDS011;49182;50.788;7.318;2023-12-28T09:05:14;5.18;;;3.08;;
43124;SDS011;49182;50.788;7.318;2023-12-28T09:10:16;8.32;;;2.50;;
43124;SDS011;49182;50.788;7.318;2023-12-28T09:15:19;4.78;;;3.58;;
43124;SDS011;49182;50.788;7.318;2023-12-28T09:20:21;6.28;;;2.25;;
43124;SDS011;49182;50.788;7.318;2023-12-28T09:25:23;6.30;;;3.35;;
43124;SDS011;49182;50.788;7.318;2023-12-28T09:30:26;4.03;;;2.13;;
43124;SDS011;49182;50.788;7.318;2023-12-28T09:45:32;4.45;;;2.05;;
43124;SDS011;49182;50.788;7.318;2023-12-28T09:55:35;5.70;;;2.08;;
43124;SDS011;49182;50.788;7.318;2023-12-28T10:00:38;5.43;;;2.40;;
43124;SDS011;49182;50.788;7.318;2023-12-28T10:05:40;2.70;;;1.85;;
43124;SDS011;49182;50.788;7.318;2023-12-28T10:10:43;5.03;;;2.35;;
43124;SDS011;49182;50.788;7.318;2023-12-28T10:15:48;3.25;;;1.55;;
43124;SDS011;49182;50.788;7.318;2023-12-28T10:20:50;3.20;;;1.13;;
43124;SDS011;49182;50.788;7.318;2023-12-28T10:25:55;4.47;;;1.50;;
43124;SDS011;49182;50.788;7.318;2023-12-28T10:30:58;4.10;;;1.67;;
43124;SDS011;49182;50.788;7.318;2023-12-28T10:36:01;2.05;;;1.08;;
43124;SDS011;49182;50.788;7.318;2023-12-28T10:41:07;3.38;;;1.30;;
43124;SDS011;49182;50.788;7.318;2023-12-28T10:46:11;4.15;;;1.58;;
43124;SDS011;49182;50.788;7.318;2023-12-28T10:51:20;3.85;;;1.45;;
43124;SDS011;49182;50.788;7.318;2023-12-28T10:56:28;4.10;;;1.40;;
43124;SDS011;49182;50.788;7.318;2023-12-28T11:01:39;3.08;;;1.05;;
43124;SDS011;49182;50.788;7.318;2023-12-28T11:06:43;3.42;;;1.73;;
43124;SDS011;49182;50.788;7.318;2023-12-28T11:16:49;3.45;;;1.00;;
43124;SDS011;49182;50.788;7.318;2023-12-28T11:21:51;4.25;;;1.30;;
43124;SDS011;49182;50.788;7.318;2023-12-28T11:31:58;4.65;;;1.20;;
43124;SDS011;49182;50.788;7.318;2023-12-28T11:37:02;4.53;;;1.13;;
43124;SDS011;49182;50.788;7.318;2023-12-28T11:42:07;2.88;;;0.90;;
43124;SDS011;49182;50.788;7.318;2023-12-28T11:47:12;5.10;;;1.45;;
43124;SDS011;49182;50.788;7.318;2023-12-28T11:52:22;4.03;;;0.77;;
43124;SDS011;49182;50.788;7.318;2023-12-28T11:57:24;4.03;;;0.93;;
43124;SDS011;49182;50.788;7.318;2023-12-28T12:02:28;7.65;;;1.50;;
43124;SDS011;49182;50.788;7.318;2023-12-28T12:07:29;7.47;;;1.65;;
43124;SDS011;49182;50.788;7.318;2023-12-28T12:12:31;1.98;;;0.50;;
43124;SDS011;49182;50.788;7.318;2023-12-28T12:17:34;3.60;;;1.42;;
43124;SDS011;49182;50.788;7.318;2023-12-28T12:22:36;3.90;;;0.70;;
43124;SDS011;49182;50.788;7.318;2023-12-28T12:27:38;2.58;;;0.73;;
43124;SDS011;49182;50.788;7.318;2023-12-28T12:32:41;4.28;;;0.82;;
43124;SDS011;49182;50.788;7.318;2023-12-28T12:37:44;8.20;;;1.38;;
43124;SDS011;49182;50.788;7.318;2023-12-28T12:47:56;3.30;;;1.10;;
43124;SDS011;49182;50.788;7.318;2023-12-28T12:52:59;3.53;;;1.08;;
43124;SDS011;49182;50.788;7.318;2023-12-28T12:58:01;3.35;;;1.52;;
43124;SDS011;49182;50.788;7.318;2023-12-28T13:03:08;2.35;;;0.98;;
43124;SDS011;49182;50.788;7.318;2023-12-28T13:08:10;4.68;;;1.27;;
43124;SDS011;49182;50.788;7.318;2023-12-28T13:13:12;4.10;;;0.98;;
43124;SDS011;49182;50.788;7.318;2023-12-28T13:18:15;8.25;;;1.77;;
43124;SDS011;49182;50.788;7.318;2023-12-28T13:23:17;2.45;;;1.00;;
43124;SDS011;49182;50.788;7.318;2023-12-28T13:28:19;7.13;;;1.80;;
43124;SDS011;49182;50.788;7.318;2023-12-28T13:33:22;1.67;;;1.00;;
43124;SDS011;49182;50.788;7.318;2023-12-28T13:38:24;3.97;;;0.80;;
43124;SDS011;49182;50.788;7.318;2023-12-28T13:43:25;4.43;;;0.93;;
43124;SDS011;49182;50.788;7.318;2023-12-28T13:48:28;4.13;;;0.77;;
43124;SDS011;49182;50.788;7.318;2023-12-28T13:53:30;2.97;;;1.23;;
43124;SDS011;49182;50.788;7.318;2023-12-28T13:58:32;3.78;;;0.98;;
43124;SDS011;49182;50.788;7.318;2023-12-28T14:03:35;8.68;;;1.55;;
43124;SDS011;49182;50.788;7.318;2023-12-28T14:08:37;3.22;;;1.00;;
43124;SDS011;49182;50.788;7.318;2023-12-28T14:13:38;6.07;;;2.70;;
43124;SDS011;49182;50.788;7.318;2023-12-28T14:18:42;2.80;;;1.20;;
43124;SDS011;49182;50.788;7.318;2023-12-28T14:23:44;5.68;;;1.58;;
43124;SDS011;49182;50.788;7.318;2023-12-28T14:28:46;5.47;;;1.02;;
43124;SDS011;49182;50.788;7.318;2023-12-28T14:33:50;3.28;;;1.27;;
43124;SDS011;49182;50.788;7.318;2023-12-28T14:38:52;3.50;;;1.05;;
43124;SDS011;49182;50.788;7.318;2023-12-28T14:43:55;4.25;;;1.35;;
43124;SDS011;49182;50.788;7.318;2023-12-28T14:48:58;4.55;;;1.23;;
43124;SDS011;49182;50.788;7.318;2023-12-28T14:54:00;3.95;;;0.93;;
43124;SDS011;49182;50.788;7.318;2023-12-28T14:59:01;2.33;;;0.70;;
43124;SDS011;49182;50.788;7.318;2023-12-28T15:04:05;2.33;;;1.58;;
43124;SDS011;49182;50.788;7.318;2023-12-28T15:09:07;3.38;;;1.17;;
43124;SDS011;49182;50.788;7.318;2023-12-28T15:14:09;3.35;;;0.93;;
43124;SDS011;49182;50.788;7.318;2023-12-28T15:19:13;2.47;;;0.82;;
43124;SDS011;49182;50.788;7.318;2023-12-28T15:24:16;4.05;;;1.42;;
43124;SDS011;49182;50.788;7.318;2023-12-28T15:29:19;5.70;;;1.40;;
43124;SDS011;49182;50.788;7.318;2023-12-28T15:34:22;2.10;;;1.00;;
43124;SDS011;49182;50.788;7.318;2023-12-28T15:39:24;5.43;;;1.45;;
43124;SDS011;49182;50.788;7.318;2023-12-28T15:44:25;3.90;;;1.40;;
43124;SDS011;49182;50.788;7.318;2023-12-28T15:49:28;2.15;;;1.15;;
43124;SDS011;49182;50.788;7.318;2023-12-28T15:54:31;3.08;;;0.88;;
43124;SDS011;49182;50.788;7.318;2023-12-28T15:59:33;3.00;;;1.02;;
43124;SDS011;49182;50.788;7.318;2023-12-28T16:04:36;4.82;;;1.20;;
43124;SDS011;49182;50.788;7.318;2023-12-28T16:09:37;5.85;;;1.23;;
43124;SDS011;49182;50.788;7.318;2023-12-28T16:14:39;3.17;;;0.95;;
43124;SDS011;49182;50.788;7.318;2023-12-28T16:19:43;7.07;;;1.73;;
43124;SDS011;49182;50.788;7.318;2023-12-28T16:24:45;3.90;;;1.02;;
43124;SDS011;49182;50.788;7.318;2023-12-28T16:29:47;1.67;;;0.90;;
43124;SDS011;49182;50.788;7.318;2023-12-28T16:34:50;3.83;;;1.45;;
43124;SDS011;49182;50.788;7.318;2023-12-28T16:39:53;2.75;;;0.80;;
43124;SDS011;49182;50.788;7.318;2023-12-28T16:44:54;1.73;;;1.45;;
43124;SDS011;49182;50.788;7.318;2023-12-28T16:49:57;2.67;;;0.93;;
43124;SDS011;49182;50.788;7.318;2023-12-28T16:55:00;2.38;;;1.35;;
43124;SDS011;49182;50.788;7.318;2023-12-28T17:00:02;2.13;;;0.80;;
43124;SDS011;49182;50.788;7.318;2023-12-28T17:05:15;2.55;;;1.15;;
43124;SDS011;49182;50.788;7.318;2023-12-28T17:10:17;1.25;;;0.80;;
43124;SDS011;49182;50.788;7.318;2023-12-28T17:15:20;1.70;;;0.80;;
43124;SDS011;49182;50.788;7.318;2023-12-28T17:20:24;2.60;;;1.45;;
43124;SDS011;49182;50.788;7.318;2023-12-28T17:25:29;2.95;;;0.90;;
43124;SDS011;49182;50.788;7.318;2023-12-28T17:30:38;1.75;;;1.20;;
43124;SDS011;49182;50.788;7.318;2023-12-28T17:35:43;2.60;;;1.02;;
43124;SDS011;49182;50.788;7.318;2023-12-28T17:40:45;5.50;;;2.28;;
43124;SDS011;49182;50.788;7.318;2023-12-28T17:45:49;10.20;;;3.05;;
43124;SDS011;49182;50.788;7.318;2023-12-28T17:50:59;6.22;;;2.15;;
43124;SDS011;49182;50.788;7.318;2023-12-28T17:56:02;12.60;;;3.13;;
43124;SDS011;49182;50.788;7.318;2023-12-28T18:01:05;7.50;;;2.20;;
43124;SDS011;49182;50.788;7.318;2023-12-28T18:06:08;5.75;;;1.40;;
43124;SDS011;49182;50.788;7.318;2023-12-28T18:11:10;4.55;;;1.80;;
43124;SDS011;49182;50.788;7.318;2023-12-28T18:16:12;5.05;;;1.17;;
43124;SDS011;49182;50.788;7.318;2023-12-28T18:21:16;2.33;;;0.80;;
43124;SDS011;49182;50.788;7.318;2023-12-28T18:26:18;3.67;;;1.45;;
43124;SDS011;49182;50.788;7.318;2023-12-28T18:31:19;4.82;;;1.02;;
43124;SDS011;49182;50.788;7.318;2023-12-28T18:36:23;2.78;;;1.10;;
43124;SDS011;49182;50.788;7.318;2023-12-28T18:41:24;5.97;;;1.63;;
43124;SDS011;49182;50.788;7.318;2023-12-28T18:46:26;6.13;;;1.85;;
43124;SDS011;49182;50.788;7.318;2023-12-28T18:51:29;5.72;;;2.15;;
43124;SDS011;49182;50.788;7.318;2023-12-28T18:56:31;5.22;;;1.98;;
43124;SDS011;49182;50.788;7.318;2023-12-28T19:01:33;6.38;;;2.03;;
43124;SDS011;49182;50.788;7.318;2023-12-28T19:06:36;5.30;;;2.47;;
43124;SDS011;49182;50.788;7.318;2023-12-28T19:11:38;9.98;;;3.95;;
43124;SDS011;49182;50.788;7.318;2023-12-28T19:16:40;7.38;;;2.35;;
43124;SDS011;49182;50.788;7.318;2023-12-28T19:21:43;8.60;;;2.70;;
43124;SDS011;49182;50.788;7.318;2023-12-28T19:26:45;3.78;;;1.50;;
43124;SDS011;49182;50.788;7.318;2023-12-28T19:31:47;3.33;;;1.38;;
43124;SDS011;49182;50.788;7.318;2023-12-28T19:36:50;3.85;;;1.85;;
43124;SDS011;49182;50.788;7.318;2023-12-28T19:41:52;2.72;;;1.25;;
43124;SDS011;49182;50.788;7.318;2023-12-28T19:46:54;4.13;;;1.38;;
43124;SDS011;49182;50.788;7.318;2023-12-28T19:51:57;6.68;;;2.35;;
43124;SDS011;49182;50.788;7.318;2023-12-28T19:57:00;4.78;;;1.70;;
43124;SDS011;49182;50.788;7.318;2023-12-28T20:02:01;4.00;;;1.83;;
43124;SDS011;49182;50.788;7.318;2023-12-28T20:07:04;3.35;;;1.17;;
43124;SDS011;49182;50.788;7.318;2023-12-28T20:12:06;3.85;;;1.63;;
43124;SDS011;49182;50.788;7.318;2023-12-28T20:17:08;4.32;;;1.27;;
43124;SDS011;49182;50.788;7.318;2023-12-28T20:22:11;1.55;;;0.95;;
43124;SDS011;49182;50.788;7.318;2023-12-28T20:27:13;3.55;;;2.17;;
43124;SDS011;49182;50.788;7.318;2023-12-28T20:32:15;3.97;;;1.52;;
43124;SDS011;49182;50.788;7.318;2023-12-28T20:37:18;2.72;;;1.70;;
43124;SDS011;49182;50.788;7.318;2023-12-28T20:42:20;6.18;;;2.80;;
43124;SDS011;49182;50.788;7.318;2023-12-28T20:47:21;3.35;;;2.00;;
43124;SDS011;49182;50.788;7.318;2023-12-28T20:52:24;4.10;;;2.05;;
43124;SDS011;49182;50.788;7.318;2023-12-28T20:57:26;3.83;;;1.83;;
43124;SDS011;49182;50.788;7.318;2023-12-28T21:02:28;5.30;;;2.15;;
43124;SDS011;49182;50.788;7.318;2023-12-28T21:07:31;7.68;;;2.47;;
43124;SDS011;49182;50.788;7.318;2023-12-28T21:12:33;3.33;;;1.67;;
43124;SDS011;49182;50.788;7.318;2023-12-28T21:17:34;3.35;;;1.23;;
43124;SDS011;49182;50.788;7.318;2023-12-28T21:22:38;8.38;;;2.25;;
43124;SDS011;49182;50.788;7.318;2023-12-28T21:27:40;3.60;;;1.50;;
43124;SDS011;49182;50.788;7.318;2023-12-28T21:32:41;6.43;;;1.85;;
43124;SDS011;49182;50.788;7.318;2023-12-28T21:37:45;5.03;;;2.42;;
43124;SDS011;49182;50.788;7.318;2023-12-28T21:42:46;3.03;;;1.30;;
43124;SDS011;49182;50.788;7.318;2023-12-28T21:47:48;8.65;;;1.48;;
43124;SDS011;49182;50.788;7.318;2023-12-28T21:52:51;6.22;;;2.08;;
43124;SDS011;49182;50.788;7.318;2023-12-28T21:57:53;3.47;;;0.90;;
43124;SDS011;49182;50.788;7.318;2023-12-28T22:02:55;2.75;;;1.20;;
43124;SDS011;49182;50.788;7.318;2023-12-28T22:07:58;2.55;;;1.42;;
43124;SDS011;49182;50.788;7.318;2023-12-28T22:13:00;3.30;;;1.45;;
43124;SDS011;49182;50.788;7.318;2023-12-28T22:18:02;3.08;;;0.80;;
43124;SDS011;49182;50.788;7.318;2023-12-28T22:28:08;1.42;;;0.85;;
43124;SDS011;49182;50.788;7.318;2023-12-28T22:33:10;2.42;;;0.95;;
43124;SDS011;49182;50.788;7.318;2023-12-28T22:38:13;2.08;;;0.50;;
43124;SDS011;49182;50.788;7.318;2023-12-28T22:43:15;2.22;;;1.20;;
43124;SDS011;49182;50.788;7.318;2023-12-28T22:48:17;2.38;;;0.63;;
43124;SDS011;49182;50.788;7.318;2023-12-28T22:53:20;1.60;;;0.93;;
43124;SDS011;49182;50.788;7.318;2023-12-28T22:58:21;5.50;;;0.80;;
43124;SDS011;49182;50.788;7.318;2023-12-28T23:03:23;1.95;;;1.00;;
43124;SDS011;49182;50.788;7.318;2023-12-28T23:08:26;1.48;;;0.50;;
43124;SDS011;49182;50.788;7.318;2023-12-28T23:13:30;2.17;;;0.98;;
43124;SDS011;49182;50.788;7.318;2023-12-28T23:18:32;1.70;;;0.73;;
43124;SDS011;49182;50.788;7.318;2023-12-28T23:23:35;1.45;;;0.95;;
43124;SDS011;49182;50.788;7.318;2023-12-28T23:28:37;2.25;;;1.17;;
43124;SDS011;49182;50.788;7.318;2023-12-28T23:33:38;1.23;;;0.55;;
43124;SDS011;49182;50.788;7.318;2023-12-28T23:38:41;1.50;;;0.65;;
43124;SDS011;49182;50.788;7.318;2023-12-28T23:43:43;1.30;;;0.60;;
43124;SDS011;49182;50.788;7.318;2023-12-28T23:48:45;1.85;;;1.00;;
43124;SDS011;49182;50.788;7.318;2023-12-28T23:53:48;2.17;;;0.65;;
43124;SDS011;49182;50.788;7.318;2023-12-28T23:58:51;2.88;;;1.23;;
